Time;durP1;ratioP1;P1;durP2;ratioP2;P2;SDS_P1;SDS_P2;PMS_P1;PMS_P2;Temp;Humidity;BMP_temperature;BMP_pressure;BME280_temperature;BME280_humidity;BME280_pressure;Samples;Min_cycle;Max_cycle;Signal;HPM_P1;HPM_P2
2022/04/24 00:00:07;;;;;;;;;;;22.80;48.90;;;;;;677746;29;1261;-92
2022/04/24 00:00:27;;;;;;;;;;;24.00;48.30;;;;;;675983;29;1412;-93
2022/04/24 00:00:48;;;;;;;;;;;22.90;48.00;;;;;;675969;29;1247;-90
2022/04/24 00:01:08;;;;;;;;;;;22.90;47.50;;;;;;677980;29;1368;-95
2022/04/24 00:01:32;;;;;;;;;;;22.80;47.90;;;;;;675503;29;1249;-93
2022/04/24 00:01:52;;;;;;;;;;;22.80;47.80;;;;;;673593;29;1198;-92
2022/04/24 00:02:13;;;;;;;;;;;22.90;48.50;;;;;;672955;29;1223;-94
2022/04/24 00:02:34;;;;;;;;;;;22.20;48.00;;;;;;673554;29;1399;-93
2022/04/24 00:02:54;;;;;;;;;;;22.80;48.00;;;;;;675401;29;772;-87
2022/04/24 00:03:16;;;;;;;;;;;22.90;47.70;;;;;;673577;29;1233;-93
2022/04/24 00:03:37;;;;;;;;;;;22.90;48.30;;;;;;673176;29;1282;-93
2022/04/24 00:03:57;;;;;;;;;;;22.90;47.70;;;;;;673044;29;1174;-90
2022/04/24 00:04:18;;;;;;;;;;;22.90;49.20;;;;;;673137;29;1189;-94
2022/04/24 00:04:39;;;;;;;;;;;22.80;47.40;;;;;;678112;29;1402;-90
2022/04/24 00:05:00;;;;;;;;;;;22.90;47.70;;;;;;676010;29;1246;-93
2022/04/24 00:05:21;;;;;;;;;;;22.90;47.30;;;;;;678046;29;1241;-95
2022/04/24 00:05:41;;;;;;;;;;;22.80;47.70;;;;;;678080;29;879;-89
2022/04/24 00:06:02;;;;;;;;;;;22.90;47.50;;;;;;678066;29;1321;-95
2022/04/24 00:06:23;;;;;;;;;;;22.90;47.60;;;;;;678613;29;1183;-87
2022/04/24 00:06:46;;;;;;;;;;;22.90;48.60;;;;;;678394;29;1210;-89
2022/04/24 00:07:08;;;;;;;;;;;22.80;48.30;;;;;;680719;29;1210;-94
2022/04/24 00:07:29;;;;;;;;;;;22.80;48.80;;;;;;678104;29;1206;-93
2022/04/24 00:07:50;;;;;;;;;;;22.80;48.90;;;;;;676278;29;1207;-91
2022/04/24 00:08:10;;;;;;;;;;;22.80;48.80;;;;;;675312;29;1401;-92
2022/04/24 00:08:31;;;;;;;;;;;21.90;47.80;;;;;;675485;29;1592;-94
2022/04/24 00:08:53;;;;;;;;;;;22.80;49.00;;;;;;673300;29;1203;-94
2022/04/24 00:09:14;;;;;;;;;;;22.80;47.20;;;;;;673452;29;1291;-91
2022/04/24 00:09:37;;;;;;;;;;;22.80;48.00;;;;;;675915;29;1320;-91
2022/04/24 00:09:58;;;;;;;;;;;22.80;48.30;;;;;;678821;29;1887;-91
2022/04/24 00:10:18;;;;;;;;;;;22.90;47.90;;;;;;680654;29;1308;-92
2022/04/24 00:10:39;;;;;;;;;;;22.80;47.30;;;;;;677913;29;1483;-89
2022/04/24 00:10:59;;;;;;;;;;;22.80;47.90;;;;;;678686;29;1348;-91
2022/04/24 00:11:20;;;;;;;;;;;22.80;48.30;;;;;;680722;29;1460;-88
2022/04/24 00:11:41;;;;;;;;;;;22.80;49.30;;;;;;680669;29;1250;-94
2022/04/24 00:12:02;;;;;;;;;;;22.80;47.70;;;;;;680800;29;1234;-93
2022/04/24 00:12:22;;;;;;;;;;;22.80;49.10;;;;;;678499;29;1209;-95
2022/04/24 00:12:44;;;;;;;;;;;22.40;48.00;;;;;;678076;29;1448;-96
2022/04/24 00:13:05;;;;;;;;;;;22.70;47.60;;;;;;678151;29;1231;-96
2022/04/24 00:13:25;;;;;;;;;;;22.80;49.20;;;;;;680397;29;1418;-95
2022/04/24 00:13:46;;;;;;;;;;;22.80;48.70;;;;;;680690;29;970;-95
2022/04/24 00:14:10;;;;;;;;;;;22.80;47.70;;;;;;680666;29;1280;-94
2022/04/24 00:14:30;;;;;;;;;;;22.80;47.30;;;;;;681424;29;1239;-93
2022/04/24 00:14:51;;;;;;;;;;;22.80;48.60;;;;;;683298;29;1413;-95
2022/04/24 00:15:12;;;;;;;;;;;22.80;48.60;;;;;;680630;29;1297;-94
2022/04/24 00:15:32;;;;;;;;;;;22.80;48.50;;;;;;678039;29;1459;-95
2022/04/24 00:15:53;;;;;;;;;;;22.80;48.50;;;;;;675310;29;1462;-88
2022/04/24 00:16:14;;;;;;;;;;;22.80;49.50;;;;;;675289;29;1336;-95
2022/04/24 00:16:34;;;;;;;;;;;22.70;47.80;;;;;;675474;29;903;-92
2022/04/24 00:16:55;;;;;;;;;;;22.80;48.20;;;;;;677648;29;1330;-91
2022/04/24 00:17:16;;;;;;;;;;;22.80;48.20;;;;;;675439;29;911;-93
2022/04/24 00:17:37;;;;;;;;;;;22.80;48.90;;;;;;675495;29;1433;-93
2022/04/24 00:17:57;;;;;;;;;;;22.70;47.90;;;;;;673041;29;1316;-93
2022/04/24 00:18:18;;;;;;;;;;;22.80;48.60;;;;;;675167;29;1318;-92
2022/04/24 00:18:40;;;;;;;;;;;22.80;48.30;;;;;;673226;29;1288;-96
2022/04/24 00:19:00;;;;;;;;;;;22.80;47.20;;;;;;673385;29;1252;-93
2022/04/24 00:19:21;;;;;;;;;;;22.70;48.10;;;;;;675380;29;1203;-93
2022/04/24 00:19:42;;;;;;;;;;;22.80;48.40;;;;;;675971;29;1191;-91
2022/04/24 00:20:03;;;;;;;;;;;22.80;47.30;;;;;;675915;29;1143;-93
2022/04/24 00:20:24;;;;;;;;;;;22.80;47.00;;;;;;675478;29;1284;-91
2022/04/24 00:20:44;;;;;;;;;;;22.80;47.50;;;;;;675736;29;1167;-92
2022/04/24 00:21:05;;;;;;;;;;;22.80;48.10;;;;;;675885;29;1334;-95
2022/04/24 00:21:26;;;;;;;;;;;22.80;47.70;;;;;;677989;29;1259;-95
2022/04/24 00:21:46;;;;;;;;;;;22.80;47.30;;;;;;678298;29;1357;-94
2022/04/24 00:22:07;;;;;;;;;;;22.80;47.70;;;;;;680323;29;1384;-95
2022/04/24 00:22:27;;;;;;;;;;;22.80;48.10;;;;;;677874;29;1369;-91
2022/04/24 00:22:48;;;;;;;;;;;22.80;47.40;;;;;;678003;29;1238;-93
2022/04/24 00:23:08;;;;;;;;;;;22.80;47.80;;;;;;675266;29;1267;-94
2022/04/24 00:23:29;;;;;;;;;;;22.80;48.10;;;;;;675702;29;1251;-94
2022/04/24 00:23:50;;;;;;;;;;;22.10;47.50;;;;;;675631;29;1183;-93
2022/04/24 00:24:10;;;;;;;;;;;22.80;48.10;;;;;;677836;29;1261;-93
2022/04/24 00:24:32;;;;;;;;;;;22.80;47.40;;;;;;677950;29;1364;-92
2022/04/24 00:24:53;;;;;;;;;;;22.80;47.30;;;;;;677929;29;1278;-91
2022/04/24 00:25:13;;;;;;;;;;;22.80;47.50;;;;;;678371;29;1257;-95
2022/04/24 00:25:34;;;;;;;;;;;22.80;48.40;;;;;;678417;29;1340;-92
2022/04/24 00:25:55;;;;;;;;;;;22.80;47.80;;;;;;677999;29;1307;-95
2022/04/24 00:26:15;;;;;;;;;;;22.80;48.50;;;;;;677970;29;1332;-93
2022/04/24 00:26:36;;;;;;;;;;;22.70;48.50;;;;;;678407;29;828;-93
2022/04/24 00:26:56;;;;;;;;;;;22.80;48.00;;;;;;680591;29;1500;-89
2022/04/24 00:27:17;;;;;;;;;;;22.80;47.60;;;;;;680887;29;1258;-95
2022/04/24 00:27:37;;;;;;;;;;;22.80;48.10;;;;;;680902;29;1269;-96
2022/04/24 00:28:00;;;;;;;;;;;22.80;47.90;;;;;;683092;29;903;-90
2022/04/24 00:28:21;;;;;;;;;;;22.70;47.70;;;;;;677933;29;1166;-93
2022/04/24 00:28:42;;;;;;;;;;;22.80;48.30;;;;;;675344;29;1298;-95
2022/04/24 00:29:02;;;;;;;;;;;22.70;49.00;;;;;;675940;29;1308;-94
2022/04/24 00:29:24;;;;;;;;;;;22.80;47.90;;;;;;678579;29;1345;-91
2022/04/24 00:29:45;;;;;;;;;;;22.80;47.10;;;;;;680522;29;1966;-95
2022/04/24 00:30:05;;;;;;;;;;;22.80;48.10;;;;;;678072;29;1412;-91
2022/04/24 00:30:26;;;;;;;;;;;22.80;47.40;;;;;;677554;29;1321;-94
2022/04/24 00:30:47;;;;;;;;;;;22.80;47.60;;;;;;675840;29;1458;-94
2022/04/24 00:31:08;;;;;;;;;;;22.70;49.30;;;;;;678173;29;918;-93
2022/04/24 00:31:29;;;;;;;;;;;22.60;48.00;;;;;;678142;29;968;-94
2022/04/24 00:31:50;;;;;;;;;;;22.70;48.40;;;;;;678346;29;1451;-94
2022/04/24 00:32:10;;;;;;;;;;;22.80;48.50;;;;;;681024;29;1306;-91
2022/04/24 00:32:31;;;;;;;;;;;22.80;48.00;;;;;;680581;29;1382;-94
2022/04/24 00:32:51;;;;;;;;;;;22.80;48.30;;;;;;680554;29;1259;-92
2022/04/24 00:33:12;;;;;;;;;;;22.70;48.30;;;;;;680625;29;1214;-95
2022/04/24 00:33:32;;;;;;;;;;;22.80;48.40;;;;;;677974;29;1365;-93
2022/04/24 00:33:53;;;;;;;;;;;22.70;47.90;;;;;;675221;29;1283;-89
2022/04/24 00:34:14;;;;;;;;;;;22.80;47.60;;;;;;675515;29;1237;-88
2022/04/24 00:34:35;;;;;;;;;;;22.80;47.90;;;;;;675363;29;1351;-91
2022/04/24 00:34:55;;;;;;;;;;;22.80;47.80;;;;;;675297;29;1338;-86
2022/04/24 00:35:16;;;;;;;;;;;22.80;47.60;;;;;;673082;29;1081;-86
2022/04/24 00:35:37;;;;;;;;;;;22.90;47.70;;;;;;673273;29;1231;-90
2022/04/24 00:35:57;;;;;;;;;;;22.80;47.80;;;;;;673457;29;1254;-93
2022/04/24 00:36:18;;;;;;;;;;;22.70;47.30;;;;;;673335;29;1256;-87
2022/04/24 00:36:38;;;;;;;;;;;22.80;47.80;;;;;;672802;29;1188;-96
2022/04/24 00:37:00;;;;;;;;;;;22.80;47.60;;;;;;673115;29;1283;-94
2022/04/24 00:37:21;;;;;;;;;;;22.80;47.40;;;;;;675754;29;912;-93
2022/04/24 00:37:42;;;;;;;;;;;22.80;47.50;;;;;;675811;29;1223;-91
2022/04/24 00:38:02;;;;;;;;;;;22.80;47.20;;;;;;678091;29;1177;-90
2022/04/24 00:38:23;;;;;;;;;;;22.90;47.80;;;;;;675191;29;1211;-91
2022/04/24 00:38:43;;;;;;;;;;;22.80;47.80;;;;;;675777;29;1246;-91
2022/04/24 00:39:04;;;;;;;;;;;22.80;47.50;;;;;;677898;29;1187;-92
2022/04/24 00:39:25;;;;;;;;;;;22.90;47.60;;;;;;678250;29;808;-90
2022/04/24 00:39:45;;;;;;;;;;;22.80;47.00;;;;;;680761;29;1219;-85
2022/04/24 00:40:07;;;;;;;;;;;22.90;48.10;;;;;;682391;29;1227;-86
2022/04/24 00:40:28;;;;;;;;;;;22.80;46.90;;;;;;680457;29;1262;-85
2022/04/24 00:40:49;;;;;;;;;;;22.90;47.10;;;;;;680485;29;1246;-85
2022/04/24 00:41:09;;;;;;;;;;;22.90;47.90;;;;;;677876;29;1257;-85
2022/04/24 00:41:30;;;;;;;;;;;22.80;48.50;;;;;;675261;29;1215;-86
2022/04/24 00:41:51;;;;;;;;;;;22.40;48.10;;;;;;673175;29;1298;-91
2022/04/24 00:42:12;;;;;;;;;;;22.80;48.30;;;;;;673061;29;1365;-86
2022/04/24 00:42:32;;;;;;;;;;;22.80;48.80;;;;;;672798;29;963;-87
2022/04/24 00:42:53;;;;;;;;;;;22.80;48.00;;;;;;673106;29;1405;-91
2022/04/24 00:43:14;;;;;;;;;;;22.80;48.30;;;;;;673044;29;1327;-86
2022/04/24 00:43:35;;;;;;;;;;;22.80;47.50;;;;;;673213;29;1266;-87
2022/04/24 00:43:55;;;;;;;;;;;22.80;49.10;;;;;;673045;29;1322;-87
2022/04/24 00:44:17;;;;;;;;;;;22.80;47.60;;;;;;678321;29;1360;-86
2022/04/24 00:44:37;;;;;;;;;;;22.60;47.60;;;;;;677862;29;1323;-90
2022/04/24 00:44:58;;;;;;;;;;;22.90;49.10;;;;;;675873;29;1225;-87
2022/04/24 00:45:19;;;;;;;;;;;22.50;49.00;;;;;;675850;29;1262;-90
2022/04/24 00:45:40;;;;;;;;;;;22.80;48.70;;;;;;677726;29;1294;-95
2022/04/24 00:46:10;;;;;;;;;;;22.90;48.80;;;;;;677846;29;1291;-88
2022/04/24 00:46:40;;;;;;;;;;;22.80;47.30;;;;;;677243;29;1280;-89
2022/04/24 00:47:13;;;;;;;;;;;22.80;46.60;;;;;;680706;29;901;-91
2022/04/24 00:47:34;;;;;;;;;;;22.90;46.90;;;;;;678018;29;1052;-89
2022/04/24 00:47:56;;;;;;;;;;;22.90;47.10;;;;;;677966;29;1414;-89
2022/04/24 00:48:17;;;;;;;;;;;22.90;48.40;;;;;;678885;29;921;-86
2022/04/24 00:48:39;;;;;;;;;;;22.80;47.80;;;;;;678014;29;1274;-92
2022/04/24 00:48:59;;;;;;;;;;;22.80;47.00;;;;;;678161;29;1214;-91
2022/04/24 00:49:21;;;;;;;;;;;22.80;47.90;;;;;;678708;29;1329;-89
2022/04/24 00:49:42;;;;;;;;;;;22.80;47.00;;;;;;678750;29;1358;-90
2022/04/24 00:50:02;;;;;;;;;;;22.80;47.50;;;;;;678097;29;1946;-91
2022/04/24 00:50:23;;;;;;;;;;;22.90;47.50;;;;;;675240;29;1403;-88
2022/04/24 00:50:44;;;;;;;;;;;22.90;47.70;;;;;;675383;29;1410;-90
2022/04/24 00:51:04;;;;;;;;;;;22.80;47.60;;;;;;675907;29;1262;-92
2022/04/24 00:51:25;;;;;;;;;;;22.80;47.80;;;;;;678459;29;1229;-92
2022/04/24 00:51:45;;;;;;;;;;;22.90;48.50;;;;;;680222;29;1220;-89
2022/04/24 00:52:06;;;;;;;;;;;22.90;46.80;;;;;;678301;29;1219;-88
2022/04/24 00:52:27;;;;;;;;;;;22.90;46.80;;;;;;677904;29;1277;-91
2022/04/24 00:52:49;;;;;;;;;;;22.90;47.70;;;;;;675360;29;1191;-94
2022/04/24 00:53:10;;;;;;;;;;;22.90;47.70;;;;;;672609;29;1320;-89
2022/04/24 00:53:32;;;;;;;;;;;22.80;47.70;;;;;;672623;29;1216;-93
2022/04/24 00:53:53;;;;;;;;;;;22.80;47.50;;;;;;670884;29;1271;-92
2022/04/24 00:54:14;;;;;;;;;;;22.80;46.80;;;;;;670912;29;1285;-88
2022/04/24 00:54:35;;;;;;;;;;;22.90;47.50;;;;;;673662;29;1366;-89
2022/04/24 00:54:56;;;;;;;;;;;22.80;47.70;;;;;;675454;29;1503;-91
2022/04/24 00:55:21;;;;;;;;;;;22.90;47.40;;;;;;673340;29;1386;-92
2022/04/24 00:55:41;;;;;;;;;;;22.90;46.70;;;;;;675368;29;1347;-88
2022/04/24 00:56:02;;;;;;;;;;;22.90;48.00;;;;;;675391;29;1262;-89
2022/04/24 00:56:30;;;;;;;;;;;22.90;46.70;;;;;;676289;29;1370;-90
2022/04/24 00:56:50;;;;;;;;;;;22.90;46.70;;;;;;675252;29;1353;-90
2022/04/24 00:57:12;;;;;;;;;;;22.90;46.80;;;;;;677102;29;1469;-89
2022/04/24 00:57:33;;;;;;;;;;;22.90;47.10;;;;;;676624;29;1456;-87
2022/04/24 00:57:54;;;;;;;;;;;22.90;47.80;;;;;;675244;29;1255;-90
2022/04/24 00:58:15;;;;;;;;;;;22.90;47.30;;;;;;676705;29;1298;-87
2022/04/24 00:58:35;;;;;;;;;;;22.90;46.50;;;;;;675940;29;1266;-90
2022/04/24 00:58:58;;;;;;;;;;;22.90;47.10;;;;;;675283;29;1313;-89
2022/04/24 00:59:20;;;;;;;;;;;22.90;47.60;;;;;;673469;29;1346;-89
2022/04/24 00:59:42;;;;;;;;;;;22.90;46.20;;;;;;673764;29;1129;-92
2022/04/24 01:00:04;;;;;;;;;;;22.20;45.80;;;;;;675967;29;1236;-86
2022/04/24 01:00:26;;;;;;;;;;;22.90;46.90;;;;;;675552;29;1329;-90
2022/04/24 01:00:48;;;;;;;;;;;22.90;46.70;;;;;;676978;29;909;-92
2022/04/24 01:01:09;;;;;;;;;;;22.90;47.60;;;;;;677897;29;1348;-91
2022/04/24 01:01:32;;;;;;;;;;;22.80;47.30;;;;;;678985;29;1409;-91
2022/04/24 01:01:52;;;;;;;;;;;22.90;46.30;;;;;;675155;29;1184;-87
2022/04/24 01:02:13;;;;;;;;;;;22.90;47.10;;;;;;678968;29;1397;-90
2022/04/24 01:02:34;;;;;;;;;;;22.80;48.40;;;;;;677987;29;1289;-91
2022/04/24 01:02:56;;;;;;;;;;;22.80;47.10;;;;;;677973;29;1211;-86
2022/04/24 01:03:17;;;;;;;;;;;22.90;46.60;;;;;;678134;29;1434;-91
2022/04/24 01:03:37;;;;;;;;;;;22.90;47.60;;;;;;678785;29;1239;-93
2022/04/24 01:04:01;;;;;;;;;;;22.80;47.40;;;;;;678427;29;1377;-94
2022/04/24 01:04:23;;;;;;;;;;;22.80;46.20;;;;;;678532;29;1243;-93
2022/04/24 01:04:45;;;;;;;;;;;22.90;46.30;;;;;;676003;29;1211;-91
2022/04/24 01:05:08;;;;;;;;;;;22.90;46.40;;;;;;674323;29;1271;-93
2022/04/24 01:05:29;;;;;;;;;;;22.80;47.10;;;;;;677254;29;1396;-89
2022/04/24 01:05:50;;;;;;;;;;;23.40;48.70;;;;;;677968;29;1229;-89
2022/04/24 01:06:10;;;;;;;;;;;22.90;47.80;;;;;;675377;29;1281;-93
2022/04/24 01:06:32;;;;;;;;;;;22.90;47.70;;;;;;673938;29;1266;-91
2022/04/24 01:06:53;;;;;;;;;;;22.70;46.70;;;;;;677388;29;1399;-90
2022/04/24 01:07:14;;;;;;;;;;;22.80;47.30;;;;;;679130;29;866;-88
2022/04/24 01:07:35;;;;;;;;;;;22.80;49.00;;;;;;679160;29;1380;-93
2022/04/24 01:07:56;;;;;;;;;;;22.80;48.10;;;;;;678936;29;1349;-93
2022/04/24 01:08:17;;;;;;;;;;;22.50;47.90;;;;;;679445;29;1269;-91
2022/04/24 01:08:38;;;;;;;;;;;22.70;46.60;;;;;;681706;29;1331;-94
2022/04/24 01:09:12;;;;;;;;;;;22.80;46.30;;;;;;681390;29;1246;-92
2022/04/24 01:09:33;;;;;;;;;;;21.60;45.60;;;;;;681282;29;1365;-92
2022/04/24 01:09:56;;;;;;;;;;;22.80;47.10;;;;;;680776;29;1954;-86
2022/04/24 01:10:17;;;;;;;;;;;22.70;47.40;;;;;;678163;29;1240;-95
2022/04/24 01:10:39;;;;;;;;;;;22.80;48.40;;;;;;678513;29;884;-87
2022/04/24 01:10:59;;;;;;;;;;;22.80;46.60;;;;;;678691;29;1261;-86
2022/04/24 01:11:20;;;;;;;;;;;22.90;48.30;;;;;;675825;29;1273;-90
2022/04/24 01:11:41;;;;;;;;;;;22.90;47.20;;;;;;677071;29;1359;-91
2022/04/24 01:12:03;;;;;;;;;;;22.80;46.80;;;;;;676516;29;1318;-88
2022/04/24 01:12:23;;;;;;;;;;;22.80;47.50;;;;;;678681;29;1219;-86
2022/04/24 01:12:44;;;;;;;;;;;22.90;48.20;;;;;;679166;29;1267;-88
2022/04/24 01:13:05;;;;;;;;;;;22.80;47.70;;;;;;678391;29;1294;-91
2022/04/24 01:13:25;;;;;;;;;;;22.80;46.80;;;;;;678787;29;1235;-88
2022/04/24 01:13:46;;;;;;;;;;;22.80;47.00;;;;;;678117;29;1249;-89
2022/04/24 01:14:07;;;;;;;;;;;22.80;47.30;;;;;;678277;29;1349;-88
2022/04/24 01:14:28;;;;;;;;;;;23.20;46.70;;;;;;678271;29;1290;-95
2022/04/24 01:14:49;;;;;;;;;;;22.80;47.10;;;;;;675684;29;1116;-89
2022/04/24 01:15:09;;;;;;;;;;;22.80;46.80;;;;;;673085;29;1216;-90
2022/04/24 01:15:30;;;;;;;;;;;22.80;46.70;;;;;;673474;29;1195;-86
2022/04/24 01:15:51;;;;;;;;;;;22.80;46.90;;;;;;676012;29;1353;-93
2022/04/24 01:16:11;;;;;;;;;;;23.00;47.10;;;;;;676521;29;1294;-93
2022/04/24 01:16:32;;;;;;;;;;;22.50;47.90;;;;;;678947;29;1487;-88
2022/04/24 01:16:53;;;;;;;;;;;22.80;47.40;;;;;;678824;29;1336;-90
2022/04/24 01:17:14;;;;;;;;;;;22.80;46.80;;;;;;676006;29;1402;-88
2022/04/24 01:17:35;;;;;;;;;;;22.80;46.90;;;;;;676738;29;1243;-93
2022/04/24 01:17:56;;;;;;;;;;;22.80;48.20;;;;;;676182;29;1333;-88
2022/04/24 01:18:17;;;;;;;;;;;22.80;47.00;;;;;;676635;29;1264;-90
2022/04/24 01:18:38;;;;;;;;;;;22.80;46.60;;;;;;676014;29;1378;-95
2022/04/24 01:18:59;;;;;;;;;;;22.80;47.40;;;;;;676699;29;1317;-91
2022/04/24 01:19:20;;;;;;;;;;;22.90;47.60;;;;;;678742;29;796;-89
2022/04/24 01:19:41;;;;;;;;;;;22.80;46.90;;;;;;676516;29;1251;-89
2022/04/24 01:20:02;;;;;;;;;;;22.70;48.20;;;;;;678997;29;1294;-90
2022/04/24 01:20:23;;;;;;;;;;;22.80;46.90;;;;;;680918;29;1209;-90
2022/04/24 01:20:43;;;;;;;;;;;22.80;46.80;;;;;;681606;29;1056;-88
2022/04/24 01:21:10;;;;;;;;;;;22.80;48.20;;;;;;680698;29;1188;-94
2022/04/24 01:21:31;;;;;;;;;;;22.80;46.30;;;;;;679849;29;1377;-88
2022/04/24 01:21:52;;;;;;;;;;;22.80;47.30;;;;;;681557;29;1279;-88
2022/04/24 01:22:15;;;;;;;;;;;22.80;48.00;;;;;;684149;29;915;-85
2022/04/24 01:22:36;;;;;;;;;;;22.80;47.80;;;;;;685119;29;998;-85
2022/04/24 01:22:57;;;;;;;;;;;22.80;48.30;;;;;;684998;29;988;-94
2022/04/24 01:23:18;;;;;;;;;;;22.30;47.40;;;;;;682165;29;1342;-92
2022/04/24 01:23:38;;;;;;;;;;;22.60;48.00;;;;;;683136;29;1238;-86
2022/04/24 01:23:59;;;;;;;;;;;22.00;47.70;;;;;;682175;29;1199;-86
2022/04/24 01:24:21;;;;;;;;;;;22.80;48.10;;;;;;682059;29;1164;-86
2022/04/24 01:24:42;;;;;;;;;;;22.80;47.00;;;;;;682268;29;1283;-86
2022/04/24 01:25:03;;;;;;;;;;;22.80;47.80;;;;;;679978;29;1227;-84
2022/04/24 01:25:24;;;;;;;;;;;22.70;46.50;;;;;;679702;29;866;-85
2022/04/24 01:25:45;;;;;;;;;;;22.80;47.40;;;;;;676912;29;1224;-85
2022/04/24 01:26:06;;;;;;;;;;;22.80;47.90;;;;;;677669;29;1239;-87
2022/04/24 01:26:28;;;;;;;;;;;22.80;47.80;;;;;;677060;29;1189;-85
2022/04/24 01:26:48;;;;;;;;;;;22.70;46.70;;;;;;677896;29;1312;-89
2022/04/24 01:27:09;;;;;;;;;;;22.70;49.20;;;;;;677696;29;1317;-86
2022/04/24 01:27:29;;;;;;;;;;;22.80;47.30;;;;;;679747;29;970;-85
2022/04/24 01:27:50;;;;;;;;;;;22.80;47.30;;;;;;682031;29;1421;-86
2022/04/24 01:28:11;;;;;;;;;;;22.80;47.40;;;;;;682321;29;1316;-85
2022/04/24 01:28:32;;;;;;;;;;;22.70;46.90;;;;;;682093;29;1207;-85
2022/04/24 01:28:52;;;;;;;;;;;22.80;46.50;;;;;;682034;29;1250;-85
2022/04/24 01:29:14;;;;;;;;;;;22.80;47.40;;;;;;679447;29;1386;-86
2022/04/24 01:29:35;;;;;;;;;;;22.70;46.90;;;;;;679730;29;1279;-86
2022/04/24 01:29:55;;;;;;;;;;;22.80;47.40;;;;;;679846;29;1880;-84
2022/04/24 01:30:16;;;;;;;;;;;22.80;47.30;;;;;;679210;29;1379;-86
2022/04/24 01:30:36;;;;;;;;;;;22.80;46.80;;;;;;679644;29;993;-85
2022/04/24 01:30:57;;;;;;;;;;;22.80;46.70;;;;;;677207;29;1181;-92
2022/04/24 01:31:17;;;;;;;;;;;22.80;46.80;;;;;;676634;29;1230;-87
2022/04/24 01:31:38;;;;;;;;;;;22.80;46.70;;;;;;676548;29;1306;-92
2022/04/24 01:31:59;;;;;;;;;;;22.70;46.50;;;;;;675921;29;1202;-91
2022/04/24 01:32:19;;;;;;;;;;;22.80;46.60;;;;;;673203;29;1322;-86
2022/04/24 01:32:40;;;;;;;;;;;22.80;46.90;;;;;;670618;29;1408;-88
2022/04/24 01:33:01;;;;;;;;;;;22.80;47.20;;;;;;670456;29;1228;-89
2022/04/24 01:33:21;;;;;;;;;;;21.50;46.40;;;;;;670513;29;1231;-85
2022/04/24 01:33:42;;;;;;;;;;;22.70;47.50;;;;;;674535;29;1196;-89
2022/04/24 01:34:03;;;;;;;;;;;22.80;46.80;;;;;;675823;29;1445;-90
2022/04/24 01:34:23;;;;;;;;;;;22.80;46.90;;;;;;678266;29;1223;-88
2022/04/24 01:34:44;;;;;;;;;;;22.80;46.40;;;;;;677781;29;1400;-87
2022/04/24 01:35:07;;;;;;;;;;;22.80;46.90;;;;;;675516;29;1386;-90
2022/04/24 01:35:27;;;;;;;;;;;22.80;46.90;;;;;;675178;29;1388;-92
2022/04/24 01:35:48;;;;;;;;;;;22.70;47.70;;;;;;673896;29;1200;-88
2022/04/24 01:36:08;;;;;;;;;;;22.80;46.70;;;;;;675352;29;866;-88
2022/04/24 01:36:29;;;;;;;;;;;22.80;47.10;;;;;;675853;29;1037;-86
2022/04/24 01:36:50;;;;;;;;;;;22.70;47.50;;;;;;678507;29;1314;-87
2022/04/24 01:37:11;;;;;;;;;;;22.70;47.30;;;;;;677820;29;1214;-85
2022/04/24 01:37:32;;;;;;;;;;;22.70;47.20;;;;;;678110;29;1390;-86
2022/04/24 01:37:55;;;;;;;;;;;22.70;47.50;;;;;;680253;29;1460;-88
2022/04/24 01:38:16;;;;;;;;;;;22.80;47.10;;;;;;680454;29;938;-85
2022/04/24 01:38:36;;;;;;;;;;;21.10;45.80;;;;;;680418;29;891;-88
2022/04/24 01:38:57;;;;;;;;;;;22.80;46.60;;;;;;680463;29;1381;-90
2022/04/24 01:39:17;;;;;;;;;;;22.70;46.80;;;;;;677985;29;1293;-86
2022/04/24 01:39:39;;;;;;;;;;;22.70;47.20;;;;;;678350;29;1316;-95
2022/04/24 01:40:00;;;;;;;;;;;22.70;46.80;;;;;;677818;29;1335;-85
2022/04/24 01:40:21;;;;;;;;;;;22.80;47.00;;;;;;675148;29;1244;-85
2022/04/24 01:40:41;;;;;;;;;;;22.80;47.30;;;;;;675129;29;1393;-85
2022/04/24 01:41:02;;;;;;;;;;;22.70;47.20;;;;;;673071;29;1203;-88
2022/04/24 01:41:22;;;;;;;;;;;22.70;48.00;;;;;;676180;29;1300;-86
2022/04/24 01:41:43;;;;;;;;;;;22.70;47.30;;;;;;676089;29;1355;-89
2022/04/24 01:42:04;;;;;;;;;;;22.70;46.90;;;;;;678833;29;1266;-85
2022/04/24 01:42:25;;;;;;;;;;;22.80;46.50;;;;;;678618;29;1183;-85
2022/04/24 01:42:46;;;;;;;;;;;22.80;46.40;;;;;;681243;29;1457;-85
2022/04/24 01:43:06;;;;;;;;;;;22.80;46.30;;;;;;680871;29;1234;-88
2022/04/24 01:43:28;;;;;;;;;;;22.70;46.20;;;;;;680896;29;1391;-94
2022/04/24 01:43:49;;;;;;;;;;;22.80;46.50;;;;;;678366;29;1297;-85
2022/04/24 01:44:10;;;;;;;;;;;22.80;46.60;;;;;;678209;29;1309;-89
2022/04/24 01:44:31;;;;;;;;;;;22.80;46.70;;;;;;678802;29;1208;-85
2022/04/24 01:44:52;;;;;;;;;;;22.80;46.30;;;;;;678250;29;1262;-85
2022/04/24 01:45:12;;;;;;;;;;;22.80;46.60;;;;;;680764;29;1265;-86
2022/04/24 01:45:33;;;;;;;;;;;22.60;46.90;;;;;;681157;29;950;-85
2022/04/24 01:45:54;;;;;;;;;;;22.70;48.20;;;;;;678131;29;1320;-88
2022/04/24 01:46:14;;;;;;;;;;;22.70;46.30;;;;;;678544;29;1393;-89
2022/04/24 01:46:35;;;;;;;;;;;22.70;46.30;;;;;;681287;29;788;-85
2022/04/24 01:46:55;;;;;;;;;;;22.70;46.30;;;;;;683318;29;1332;-86
2022/04/24 01:47:16;;;;;;;;;;;22.80;46.40;;;;;;683101;29;1370;-86
2022/04/24 01:47:37;;;;;;;;;;;22.70;46.30;;;;;;683368;29;1232;-88
2022/04/24 01:47:57;;;;;;;;;;;22.80;47.10;;;;;;683984;28;1029;-95
2022/04/24 01:48:19;;;;;;;;;;;22.60;48.10;;;;;;683328;29;1251;-94
2022/04/24 01:48:40;;;;;;;;;;;22.70;47.10;;;;;;682916;29;1274;-95
2022/04/24 01:49:00;;;;;;;;;;;22.70;46.20;;;;;;680771;29;1320;-95
2022/04/24 01:49:21;;;;;;;;;;;22.80;48.10;;;;;;681645;29;832;-95
2022/04/24 01:49:42;;;;;;;;;;;22.70;47.80;;;;;;680429;29;1390;-94
2022/04/24 01:50:02;;;;;;;;;;;22.70;48.60;;;;;;680767;29;1911;-95
2022/04/24 01:50:23;;;;;;;;;;;22.30;48.50;;;;;;680717;29;1380;-95
2022/04/24 01:50:44;;;;;;;;;;;22.70;47.00;;;;;;678300;29;1284;-94
2022/04/24 01:51:05;;;;;;;;;;;22.70;47.30;;;;;;675600;29;1350;-94
2022/04/24 01:51:26;;;;;;;;;;;22.70;47.00;;;;;;673369;29;1386;-91
2022/04/24 01:51:48;;;;;;;;;;;22.70;47.00;;;;;;672984;29;1212;-93
2022/04/24 01:52:10;;;;;;;;;;;22.70;48.10;;;;;;673660;29;1338;-92
2022/04/24 01:52:31;;;;;;;;;;;22.70;46.80;;;;;;676474;29;1337;-94
2022/04/24 01:52:51;;;;;;;;;;;22.70;47.00;;;;;;677871;29;1313;-94
2022/04/24 01:53:12;;;;;;;;;;;22.70;47.30;;;;;;675643;29;1348;-94
2022/04/24 01:53:33;;;;;;;;;;;22.70;47.80;;;;;;673778;29;1227;-94
2022/04/24 01:53:54;;;;;;;;;;;22.70;46.90;;;;;;672801;29;1208;-92
2022/04/24 01:54:14;;;;;;;;;;;22.70;47.10;;;;;;673017;29;1571;-95
2022/04/24 01:54:35;;;;;;;;;;;22.60;47.50;;;;;;671551;29;1369;-93
2022/04/24 01:54:56;;;;;;;;;;;22.70;47.10;;;;;;673567;29;1207;-94
2022/04/24 01:55:18;;;;;;;;;;;22.70;47.30;;;;;;673309;29;1223;-93
2022/04/24 01:55:38;;;;;;;;;;;22.70;46.60;;;;;;676062;29;1199;-94
2022/04/24 01:56:00;;;;;;;;;;;22.70;46.30;;;;;;675490;29;1373;-95
2022/04/24 01:56:21;;;;;;;;;;;22.70;46.40;;;;;;676206;29;868;-94
2022/04/24 01:56:42;;;;;;;;;;;22.70;47.10;;;;;;678839;29;1197;-92
2022/04/24 01:57:02;;;;;;;;;;;22.70;47.20;;;;;;678714;29;1182;-92
2022/04/24 01:57:23;;;;;;;;;;;22.70;48.00;;;;;;678185;29;1326;-93
2022/04/24 01:57:44;;;;;;;;;;;22.70;48.00;;;;;;678117;29;1191;-94
2022/04/24 01:58:04;;;;;;;;;;;22.70;46.90;;;;;;678332;29;843;-92
2022/04/24 01:58:26;;;;;;;;;;;22.70;47.20;;;;;;675906;29;1351;-93
2022/04/24 01:58:46;;;;;;;;;;;22.60;46.40;;;;;;675719;29;1227;-94
2022/04/24 01:59:07;;;;;;;;;;;22.60;47.60;;;;;;676076;29;1179;-93
2022/04/24 01:59:27;;;;;;;;;;;22.80;46.80;;;;;;675506;29;1290;-90
2022/04/24 01:59:48;;;;;;;;;;;22.70;46.80;;;;;;675642;29;1243;-95
2022/04/24 02:00:09;;;;;;;;;;;22.70;47.00;;;;;;675762;29;1343;-94
2022/04/24 02:00:30;;;;;;;;;;;22.70;47.50;;;;;;680285;29;1346;-88
2022/04/24 02:00:53;;;;;;;;;;;22.70;46.10;;;;;;678503;29;1271;-93
2022/04/24 02:01:13;;;;;;;;;;;22.70;46.10;;;;;;678090;29;1341;-91
2022/04/24 02:01:34;;;;;;;;;;;22.70;47.40;;;;;;678235;29;795;-92
2022/04/24 02:01:54;;;;;;;;;;;22.70;47.70;;;;;;678793;29;1285;-92
2022/04/24 02:02:15;;;;;;;;;;;22.70;47.70;;;;;;678262;29;1212;-92
2022/04/24 02:02:35;;;;;;;;;;;22.70;46.90;;;;;;678232;29;1203;-92
2022/04/24 02:02:56;;;;;;;;;;;22.70;46.30;;;;;;675636;29;1210;-95
2022/04/24 02:03:17;;;;;;;;;;;22.60;47.80;;;;;;678086;29;1215;-94
2022/04/24 02:03:38;;;;;;;;;;;22.60;46.10;;;;;;675865;29;1305;-94
2022/04/24 02:03:58;;;;;;;;;;;22.70;46.20;;;;;;675600;29;1187;-92
2022/04/24 02:04:22;;;;;;;;;;;22.80;46.80;;;;;;673278;29;1270;-93
2022/04/24 02:04:44;;;;;;;;;;;22.70;46.20;;;;;;676230;29;1431;-94
2022/04/24 02:05:04;;;;;;;;;;;22.70;46.60;;;;;;675552;29;1255;-94
2022/04/24 02:05:25;;;;;;;;;;;21.70;45.60;;;;;;672841;29;1232;-94
2022/04/24 02:05:46;;;;;;;;;;;22.70;46.80;;;;;;675667;29;1277;-89
2022/04/24 02:06:06;;;;;;;;;;;22.70;47.50;;;;;;677942;29;1318;-90
2022/04/24 02:06:27;;;;;;;;;;;22.80;46.50;;;;;;678539;29;800;-95